Time;durP1;ratioP1;P1;durP2;ratioP2;P2;SDS_P1;SDS_P2;PMS_P1;PMS_P2;Temp;Humidity;BMP_temperature;BMP_pressure;BME280_temperature;BME280_humidity;BME280_pressure;Samples;Min_cycle;Max_cycle;Signal;HPM_P1;HPM_P2
2021/07/26 00:01:15;;;;;;;10.87;9.87;;;19.10;99.90;;;;;;5089530;28;20249;-84
2021/07/26 00:03:42;;;;;;;11.00;10.00;;;19.10;99.90;;;;;;5090468;28;20166;-84
2021/07/26 00:06:09;;;;;;;11.13;10.00;;;19.10;99.90;;;;;;5105598;28;20397;-84
2021/07/26 00:08:35;;;;;;;10.30;9.30;;;19.10;99.90;;;;;;5112026;28;20444;-81
2021/07/26 00:11:02;;;;;;;14.13;10.33;;;19.00;99.90;;;;;;5118098;28;20376;-81
2021/07/26 00:13:28;;;;;;;12.60;10.90;;;18.90;99.90;;;;;;5118224;28;20388;-81
2021/07/26 00:15:54;;;;;;;8.73;7.83;;;18.90;99.90;;;;;;5117814;28;20397;-80
2021/07/26 00:18:20;;;;;;;10.83;9.73;;;19.00;99.90;;;;;;5100357;28;20191;-81
2021/07/26 00:20:45;;;;;;;12.33;9.73;;;19.00;99.90;;;;;;5118249;28;20413;-83
2021/07/26 00:23:11;;;;;;;12.33;8.37;;;19.10;99.90;;;;;;5118121;28;20182;-80
2021/07/26 00:25:36;;;;;;;11.97;9.57;;;19.10;99.90;;;;;;5118524;28;20158;-81
2021/07/26 00:28:02;;;;;;;11.97;9.23;;;19.00;99.90;;;;;;5084384;28;20178;-80
2021/07/26 00:30:28;;;;;;;11.20;9.40;;;19.00;99.90;;;;;;5090470;28;20167;-83
2021/07/26 00:32:53;;;;;;;10.90;9.57;;;19.00;99.90;;;;;;5070944;28;20169;-83
2021/07/26 00:35:19;;;;;;;10.30;9.30;;;19.00;99.90;;;;;;5105342;28;20169;-83
2021/07/26 00:37:44;;;;;;;13.60;9.37;;;19.00;99.90;;;;;;5105419;28;20288;-83
2021/07/26 00:40:10;;;;;;;11.70;9.43;;;18.90;99.90;;;;;;5104503;28;20593;-83
2021/07/26 00:42:36;;;;;;;14.93;10.23;;;18.70;99.90;;;;;;5104802;28;20194;-83
2021/07/26 00:45:04;;;;;;;17.83;9.97;;;18.60;99.90;;;;;;5104098;28;20427;-83
2021/07/26 00:47:29;;;;;;;11.50;8.50;;;18.70;99.90;;;;;;5087320;28;20385;-83
2021/07/26 00:49:55;;;;;;;10.43;9.20;;;18.60;99.90;;;;;;5105178;28;20444;-83
2021/07/26 00:52:21;;;;;;;10.00;9.00;;;18.70;99.90;;;;;;5105133;28;20171;-83
2021/07/26 00:54:48;;;;;;;14.33;9.70;;;18.70;99.90;;;;;;5104343;28;20385;-84
2021/07/26 00:57:13;;;;;;;16.83;11.40;;;18.60;99.90;;;;;;5086581;28;20491;-84
2021/07/26 00:59:39;;;;;;;10.30;9.23;;;18.50;99.90;;;;;;5086274;28;20934;-84
2021/07/26 01:02:05;;;;;;;16.20;9.67;;;18.60;99.90;;;;;;5086898;28;20173;-84
2021/07/26 01:04:31;;;;;;;11.30;9.87;;;18.60;99.90;;;;;;5104222;28;20170;-84
2021/07/26 01:06:57;;;;;;;10.73;9.70;;;18.70;99.90;;;;;;5104655;28;20173;-83
2021/07/26 01:09:22;;;;;;;10.97;9.07;;;18.50;99.90;;;;;;5086216;28;20206;-84
2021/07/26 01:11:48;;;;;;;10.60;9.60;;;18.50;99.90;;;;;;5052858;28;20155;-84
2021/07/26 01:14:15;;;;;;;11.47;10.03;;;18.30;99.90;;;;;;5086855;28;20174;-84
2021/07/26 01:16:44;;;;;;;14.70;8.60;;;18.30;99.90;;;;;;5086419;28;20151;-84
2021/07/26 01:19:10;;;;;;;14.80;10.60;;;18.40;99.90;;;;;;5104406;28;20400;-84
2021/07/26 01:21:38;;;;;;;11.57;9.60;;;18.30;99.90;;;;;;5086546;28;20480;-84
2021/07/26 01:24:04;;;;;;;11.77;9.53;;;18.30;99.90;;;;;;5052302;28;20424;-84
2021/07/26 01:26:31;;;;;;;11.30;8.67;;;18.40;99.90;;;;;;5103237;28;20167;-84
2021/07/26 01:29:00;;;;;;;13.87;10.00;;;18.30;99.90;;;;;;5069547;28;20487;-84
2021/07/26 01:31:26;;;;;;;11.17;9.90;;;18.30;99.90;;;;;;5103880;28;20387;-84
2021/07/26 01:33:53;;;;;;;10.20;8.70;;;18.30;99.90;;;;;;5104438;28;20464;-84
2021/07/26 01:36:21;;;;;;;9.40;8.47;;;18.20;99.90;;;;;;5085138;28;20394;-84
2021/07/26 01:38:51;;;;;;;15.80;9.63;;;18.20;99.90;;;;;;5085637;28;20408;-84
2021/07/26 01:41:20;;;;;;;16.20;10.60;;;18.30;99.90;;;;;;5103465;28;20467;-84
2021/07/26 01:46:35;;;;;;;16.63;11.07;;;18.30;99.90;;;;;;5103487;28;20393;-84
2021/07/26 01:49:21;;;;;;;11.13;10.13;;;18.20;99.90;;;;;;5084904;28;20447;-84
2021/07/26 01:51:47;;;;;;;16.53;10.57;;;18.10;99.90;;;;;;5069933;28;20401;-84
2021/07/26 01:54:13;;;;;;;11.50;8.87;;;18.20;99.90;;;;;;5085597;28;20392;-84
2021/07/26 01:56:38;;;;;;;16.57;10.43;;;18.10;99.90;;;;;;5102033;28;20446;-84
2021/07/26 01:59:06;;;;;;;16.97;10.33;;;18.10;99.90;;;;;;5103153;28;20220;-84
2021/07/26 02:01:31;;;;;;;13.10;9.20;;;18.20;99.90;;;;;;5103296;28;20230;-84
2021/07/26 02:03:57;;;;;;;15.77;9.23;;;18.20;99.90;;;;;;5102365;28;20431;-84
2021/07/26 02:06:23;;;;;;;15.70;10.57;;;18.20;99.90;;;;;;5103224;28;20171;-84
2021/07/26 02:08:48;;;;;;;11.43;10.23;;;18.30;99.90;;;;;;5102554;28;20256;-84
2021/07/26 02:11:14;;;;;;;12.87;8.97;;;18.20;99.90;;;;;;5103089;28;20158;-84
2021/07/26 02:13:40;;;;;;;10.67;9.27;;;18.20;99.90;;;;;;5102140;28;20397;-84
2021/07/26 02:16:12;;;;;;;10.53;8.30;;;18.20;99.90;;;;;;5102880;28;20393;-84
2021/07/26 02:18:38;;;;;;;14.10;9.73;;;18.20;99.90;;;;;;5113519;28;20155;-82
2021/07/26 02:21:04;;;;;;;10.43;9.40;;;18.30;99.90;;;;;;5115618;28;20408;-84
2021/07/26 02:23:30;;;;;;;9.97;9.00;;;18.40;99.90;;;;;;5102365;28;20182;-84
2021/07/26 02:25:55;;;;;;;9.40;8.60;;;18.40;99.90;;;;;;5103722;28;20159;-84
2021/07/26 02:28:21;;;;;;;10.13;7.70;;;18.50;99.90;;;;;;5102083;28;20190;-84
2021/07/26 02:30:46;;;;;;;9.83;8.40;;;18.60;99.90;;;;;;5084459;28;20151;-84
2021/07/26 02:33:13;;;;;;;9.60;8.70;;;18.70;99.90;;;;;;5102528;28;20155;-84
2021/07/26 02:35:38;;;;;;;17.90;8.47;;;18.70;99.90;;;;;;5102130;28;20155;-84
2021/07/26 02:38:04;;;;;;;15.00;10.30;;;18.80;99.90;;;;;;5103037;28;20817;-84
2021/07/26 02:40:29;;;;;;;10.90;8.43;;;19.00;99.90;;;;;;5101768;28;20222;-84
2021/07/26 02:42:56;;;;;;;11.70;8.70;;;19.00;99.90;;;;;;5102229;28;20155;-84
2021/07/26 02:45:24;;;;;;;10.60;8.10;;;19.10;99.90;;;;;;5102870;28;20159;-84
2021/07/26 02:47:49;;;;;;;10.03;8.60;;;19.00;99.90;;;;;;5102727;28;20404;-84
2021/07/26 02:50:14;;;;;;;9.63;8.73;;;18.80;99.90;;;;;;5102278;28;20432;-84
2021/07/26 02:52:40;;;;;;;13.00;7.63;;;18.80;99.90;;;;;;5084691;28;20162;-84
2021/07/26 02:55:07;;;;;;;9.10;8.20;;;18.70;99.90;;;;;;5084262;28;20640;-84
2021/07/26 02:57:33;;;;;;;10.23;8.20;;;18.50;99.90;;;;;;5102177;28;20163;-84
2021/07/26 02:59:59;;;;;;;9.23;8.33;;;18.40;99.90;;;;;;5103308;28;20392;-84
2021/07/26 03:02:24;;;;;;;11.73;9.03;;;18.40;99.90;;;;;;5101704;28;20230;-84
2021/07/26 03:04:50;;;;;;;9.63;8.70;;;18.30;99.90;;;;;;5051351;28;20424;-84
2021/07/26 03:07:15;;;;;;;9.67;8.60;;;18.30;99.90;;;;;;5084764;28;20162;-84
2021/07/26 03:09:41;;;;;;;13.20;9.67;;;18.20;99.90;;;;;;5071431;28;20202;-84
2021/07/26 03:12:07;;;;;;;10.80;9.00;;;18.20;99.90;;;;;;5108626;28;20166;-84
2021/07/26 03:14:32;;;;;;;9.57;8.63;;;18.20;99.90;;;;;;5108628;28;20166;-84
2021/07/26 03:17:03;;;;;;;10.87;9.77;;;18.30;99.90;;;;;;5114317;28;20163;-81
2021/07/26 03:19:29;;;;;;;9.70;8.70;;;18.40;99.90;;;;;;5118950;28;20167;-81
2021/07/26 03:22:35;;;;;;;11.40;8.77;;;18.40;99.90;;;;;;5118689;28;20397;-82
2021/07/26 03:25:03;;;;;;;11.10;9.30;;;18.40;99.90;;;;;;5109586;28;20433;-84
2021/07/26 03:27:29;;;;;;;14.03;10.77;;;18.30;99.90;;;;;;5091484;28;20425;-84
2021/07/26 03:29:54;;;;;;;9.80;8.90;;;18.20;99.90;;;;;;5110086;28;20194;-84
2021/07/26 03:32:20;;;;;;;12.43;9.27;;;18.30;99.90;;;;;;5089437;28;20163;-84
2021/07/26 03:34:45;;;;;;;17.20;10.23;;;18.40;99.90;;;;;;5105292;28;20258;-84
2021/07/26 03:37:11;;;;;;;10.20;8.47;;;18.30;99.90;;;;;;5105169;28;20169;-84
2021/07/26 03:39:36;;;;;;;11.30;8.80;;;18.30;99.90;;;;;;5105358;28;20222;-84
2021/07/26 03:42:02;;;;;;;9.73;8.00;;;18.30;99.90;;;;;;5105611;28;20276;-84
2021/07/26 03:44:29;;;;;;;14.57;8.67;;;18.30;99.90;;;;;;5105218;28;20159;-84
2021/07/26 03:46:58;;;;;;;11.90;8.73;;;18.30;99.90;;;;;;5087183;28;20163;-83
2021/07/26 03:49:23;;;;;;;10.20;9.20;;;18.20;99.90;;;;;;5105251;28;20462;-83
2021/07/26 03:51:49;;;;;;;13.57;8.50;;;17.90;99.90;;;;;;5105379;28;20392;-84
2021/07/26 03:54:14;;;;;;;14.70;9.53;;;17.80;99.90;;;;;;5105829;28;20154;-84
2021/07/26 03:56:40;;;;;;;10.33;9.33;;;17.80;99.90;;;;;;5087249;28;20192;-84
2021/07/26 03:59:05;;;;;;;13.33;9.00;;;17.80;99.90;;;;;;5086859;28;20216;-83
2021/07/26 04:01:31;;;;;;;10.57;9.27;;;17.80;99.90;;;;;;5086679;28;20163;-84
2021/07/26 04:03:56;;;;;;;12.60;8.73;;;17.80;99.90;;;;;;5086928;28;20484;-84
2021/07/26 04:06:22;;;;;;;10.23;9.20;;;17.80;99.90;;;;;;5104980;28;20201;-83
2021/07/26 04:08:50;;;;;;;10.13;9.20;;;17.80;99.90;;;;;;5105125;28;20205;-84
2021/07/26 04:11:30;;;;;;;12.23;9.40;;;17.90;99.90;;;;;;5104800;28;20389;-84
2021/07/26 04:13:59;;;;;;;11.43;9.60;;;17.90;99.90;;;;;;5088379;28;20380;-83
2021/07/26 04:16:25;;;;;;;11.50;10.40;;;17.90;99.90;;;;;;5104733;28;20392;-84
2021/07/26 04:18:51;;;;;;;16.00;9.23;;;17.90;99.90;;;;;;5087130;28;20405;-83
2021/07/26 04:21:17;;;;;;;10.77;9.37;;;17.90;99.90;;;;;;5103760;28;20198;-84
2021/07/26 04:23:43;;;;;;;9.87;8.87;;;18.00;99.90;;;;;;5086614;28;20849;-84
2021/07/26 04:26:10;;;;;;;11.00;9.70;;;18.00;99.90;;;;;;5087063;28;20415;-84
2021/07/26 04:28:36;;;;;;;9.73;8.83;;;18.00;99.90;;;;;;5086755;28;20439;-84
2021/07/26 04:31:03;;;;;;;12.10;10.53;;;18.20;99.90;;;;;;5086735;28;20392;-84
2021/07/26 04:33:29;;;;;;;11.00;7.70;;;18.10;99.90;;;;;;5104738;28;20392;-84
2021/07/26 04:35:54;;;;;;;12.50;9.40;;;18.20;99.90;;;;;;5086998;28;20400;-84
2021/07/26 04:38:20;;;;;;;11.13;9.23;;;18.30;99.90;;;;;;5086077;28;20162;-84
2021/07/26 04:40:45;;;;;;;9.93;8.97;;;18.20;99.90;;;;;;5103216;28;20643;-84
2021/07/26 04:43:10;;;;;;;13.13;9.97;;;18.10;99.90;;;;;;5085991;28;20159;-84
2021/07/26 04:45:36;;;;;;;13.70;10.30;;;18.10;99.90;;;;;;5103181;28;20170;-85
2021/07/26 04:48:02;;;;;;;15.23;9.33;;;18.10;99.90;;;;;;5085882;28;20159;-85
2021/07/26 04:50:27;;;;;;;9.73;8.73;;;18.10;99.90;;;;;;5085514;28;20186;-85
2021/07/26 04:52:53;;;;;;;11.63;10.07;;;18.10;99.90;;;;;;5085914;28;20165;-85
2021/07/26 04:55:19;;;;;;;12.40;8.93;;;18.00;99.90;;;;;;5068454;28;20169;-85
2021/07/26 04:57:45;;;;;;;13.80;9.90;;;18.10;99.90;;;;;;5085396;28;20193;-85
2021/07/26 05:00:10;;;;;;;12.97;9.70;;;18.10;99.90;;;;;;5078214;28;20400;-84
2021/07/26 05:02:38;;;;;;;13.70;10.40;;;18.10;99.90;;;;;;5079809;28;20177;-85
2021/07/26 05:05:04;;;;;;;10.60;8.97;;;18.20;99.90;;;;;;5095604;28;20192;-84
2021/07/26 05:07:29;;;;;;;17.00;10.10;;;18.10;99.90;;;;;;5113444;28;20460;-83
2021/07/26 05:09:55;;;;;;;13.63;10.03;;;18.10;99.90;;;;;;5113616;28;20441;-83
2021/07/26 05:12:20;;;;;;;14.43;9.83;;;18.30;99.90;;;;;;5113776;28;20171;-85
2021/07/26 05:14:47;;;;;;;15.57;11.43;;;18.50;99.90;;;;;;5097054;28;20155;-84
2021/07/26 05:17:17;;;;;;;9.87;8.83;;;18.70;99.90;;;;;;5096010;28;20200;-85
2021/07/26 05:19:42;;;;;;;12.10;9.70;;;18.80;99.90;;;;;;5093268;28;20404;-85
2021/07/26 05:22:08;;;;;;;10.77;9.80;;;18.90;99.90;;;;;;5069461;28;20400;-85
2021/07/26 05:24:34;;;;;;;10.07;8.70;;;18.90;99.90;;;;;;5060799;28;20242;-85
2021/07/26 05:27:02;;;;;;;13.30;10.23;;;19.10;99.90;;;;;;5036743;28;20188;-85
2021/07/26 05:29:28;;;;;;;12.10;10.37;;;19.30;99.90;;;;;;5030894;28;20307;-85
2021/07/26 05:31:54;;;;;;;12.00;9.97;;;19.40;99.90;;;;;;5014670;28;20445;-85
2021/07/26 05:34:21;;;;;;;10.20;9.00;;;19.60;99.90;;;;;;5043981;28;20398;-85
2021/07/26 05:36:47;;;;;;;11.43;10.03;;;19.70;99.90;;;;;;5030334;28;20687;-85
2021/07/26 05:39:13;;;;;;;13.23;10.43;;;19.80;99.90;;;;;;5038209;28;20513;-85
2021/07/26 05:41:40;;;;;;;14.10;9.70;;;19.90;99.90;;;;;;5026907;28;20723;-85
2021/07/26 05:44:05;;;;;;;10.03;9.10;;;19.80;99.90;;;;;;5044877;28;20168;-82
2021/07/26 05:46:31;;;;;;;7.07;6.37;;;19.90;99.90;;;;;;5043408;28;20440;-82
2021/07/26 05:48:56;;;;;;;13.00;9.80;;;20.30;99.90;;;;;;5058668;28;20214;-82
2021/07/26 05:51:22;;;;;;;11.03;8.40;;;20.40;99.90;;;;;;5059112;28;20167;-82
2021/07/26 05:53:47;;;;;;;10.13;9.20;;;20.50;99.90;;;;;;5042153;28;20186;-81
2021/07/26 05:56:13;;;;;;;8.23;7.43;;;20.80;99.90;;;;;;5060394;28;20168;-82
2021/07/26 05:58:45;;;;;;;14.40;8.27;;;20.80;99.90;;;;;;5073452;28;20191;-80
2021/07/26 06:01:23;;;;;;;9.37;8.00;;;21.00;99.90;;;;;;5095975;28;20193;-80
2021/07/26 06:03:50;;;;;;;10.47;7.10;;;21.00;99.90;;;;;;5097726;28;20425;-82
2021/07/26 06:06:16;;;;;;;10.10;9.03;;;21.10;99.90;;;;;;5086902;28;20420;-82
2021/07/26 06:08:41;;;;;;;12.73;8.73;;;21.10;99.90;;;;;;5085147;28;20468;-82
2021/07/26 06:11:07;;;;;;;14.00;8.53;;;21.20;99.90;;;;;;5091567;28;20414;-81
2021/07/26 06:13:32;;;;;;;7.83;7.03;;;21.50;99.90;;;;;;5089353;28;20183;-82
2021/07/26 06:15:58;;;;;;;11.73;9.50;;;21.70;99.90;;;;;;5091038;28;20181;-81
2021/07/26 06:18:26;;;;;;;12.63;8.63;;;21.60;99.90;;;;;;5095041;28;20181;-83
2021/07/26 06:20:52;;;;;;;9.33;8.20;;;21.30;99.90;;;;;;5057239;28;20167;-82
2021/07/26 06:23:19;;;;;;;10.13;9.07;;;21.40;99.90;;;;;;5083460;28;20425;-82
2021/07/26 06:25:45;;;;;;;18.93;8.23;;;21.50;99.90;;;;;;5066396;28;20438;-82
2021/07/26 06:28:11;;;;;;;27.13;8.07;;;21.40;99.90;;;;;;5078560;28;20425;-82
2021/07/26 06:30:36;;;;;;;11.33;8.93;;;21.50;99.90;;;;;;5065885;28;20166;-82
2021/07/26 06:33:02;;;;;;;8.57;7.60;;;21.50;99.90;;;;;;5086770;28;20625;-81
2021/07/26 06:35:27;;;;;;;9.90;8.50;;;21.60;99.90;;;;;;5098360;28;20181;-83
2021/07/26 06:37:53;;;;;;;8.50;7.70;;;21.60;99.90;;;;;;5064848;28;20251;-83
2021/07/26 06:40:21;;;;;;;10.13;8.50;;;21.70;99.90;;;;;;5062618;28;20231;-82
2021/07/26 06:42:48;;;;;;;9.03;8.13;;;21.80;99.90;;;;;;5054544;28;20198;-81
2021/07/26 06:45:13;;;;;;;8.40;7.60;;;21.80;99.90;;;;;;5078166;28;20755;-82
2021/07/26 06:47:43;;;;;;;12.00;8.87;;;21.80;99.90;;;;;;5055568;28;20414;-81
2021/07/26 06:50:10;;;;;;;10.00;9.03;;;21.70;99.90;;;;;;5085202;28;20197;-81
2021/07/26 06:52:35;;;;;;;10.50;9.40;;;21.90;99.90;;;;;;5056680;28;20422;-83
2021/07/26 06:55:01;;;;;;;11.30;9.35;;;21.80;99.90;;;;;;5070274;28;20416;-82
2021/07/26 06:57:26;;;;;;;8.83;8.03;;;21.60;99.90;;;;;;5079540;28;20163;-82
2021/07/26 06:59:52;;;;;;;12.43;8.83;;;21.80;99.90;;;;;;5073039;28;20190;-81
2021/07/26 07:02:17;;;;;;;9.23;8.33;;;22.00;99.90;;;;;;5040926;28;20198;-82
2021/07/26 07:04:43;;;;;;;8.73;7.93;;;22.30;99.90;;;;;;5061644;28;20194;-81
2021/07/26 07:07:10;;;;;;;9.93;7.90;;;22.50;99.90;;;;;;5017552;28;20204;-82
2021/07/26 07:09:36;;;;;;;10.47;9.27;;;22.50;99.90;;;;;;5022430;28;20232;-82
2021/07/26 07:12:01;;;;;;;10.43;8.83;;;22.30;99.90;;;;;;5025099;28;20431;-81
2021/07/26 07:14:30;;;;;;;11.33;10.27;;;22.20;99.90;;;;;;5026758;28;20165;-81
2021/07/26 07:17:01;;;;;;;10.07;7.30;;;22.10;99.90;;;;;;4972767;28;20198;-81
2021/07/26 07:19:30;;;;;;;9.27;7.60;;;22.20;99.90;;;;;;4966956;28;20448;-82
2021/07/26 07:21:55;;;;;;;10.43;9.33;;;22.30;99.90;;;;;;4975413;28;20528;-82
2021/07/26 07:24:24;;;;;;;9.67;8.67;;;22.20;99.90;;;;;;4986456;28;20770;-82
2021/07/26 07:26:55;;;;;;;9.33;8.43;;;22.10;99.90;;;;;;4986990;28;20197;-81
2021/07/26 07:29:23;;;;;;;8.37;7.50;;;22.30;99.90;;;;;;4989144;28;20813;-82
2021/07/26 07:31:54;;;;;;;8.53;7.70;;;22.50;99.90;;;;;;4964833;28;20426;-82
2021/07/26 07:34:26;;;;;;;10.50;7.63;;;22.20;99.90;;;;;;5006254;28;20517;-82
2021/07/26 07:36:57;;;;;;;8.73;7.93;;;22.30;99.90;;;;;;5001599;28;20472;-81
2021/07/26 07:39:25;;;;;;;7.70;7.00;;;22.40;99.90;;;;;;5001217;28;20929;-80
2021/07/26 07:41:52;;;;;;;8.93;8.13;;;22.50;99.90;;;;;;5001728;28;20494;-82
2021/07/26 07:44:20;;;;;;;9.47;8.53;;;22.20;99.90;;;;;;4958842;29;20420;-81
2021/07/26 07:46:48;;;;;;;8.93;7.60;;;22.30;99.90;;;;;;4954771;28;20443;-81
2021/07/26 07:49:15;;;;;;;8.43;7.50;;;22.60;99.90;;;;;;5002941;28;20453;-82
2021/07/26 07:51:41;;;;;;;9.17;7.70;;;22.50;99.90;;;;;;5002285;28;20192;-81
2021/07/26 07:54:07;;;;;;;9.90;7.73;;;22.40;99.90;;;;;;5002202;28;20444;-81
2021/07/26 07:56:33;;;;;;;7.33;6.63;;;22.40;99.90;;;;;;5015030;28;20600;-80
2021/07/26 07:59:00;;;;;;;8.67;7.77;;;22.30;99.90;;;;;;5003532;28;20200;-81
2021/07/26 08:01:30;;;;;;;7.80;7.00;;;22.40;99.90;;;;;;5020884;28;20432;-81
2021/07/26 08:03:56;;;;;;;7.13;6.57;;;22.30;99.90;;;;;;5013676;28;20455;-82
2021/07/26 08:06:21;;;;;;;10.13;7.63;;;22.50;99.90;;;;;;5016064;28;20440;-82
2021/07/26 08:08:47;;;;;;;7.33;6.63;;;22.60;99.90;;;;;;4998123;28;20309;-81
2021/07/26 08:11:13;;;;;;;7.70;6.90;;;22.70;99.90;;;;;;5002755;28;20228;-82
2021/07/26 08:13:39;;;;;;;7.17;6.57;;;22.50;99.90;;;;;;5019463;28;20219;-80
2021/07/26 08:16:05;;;;;;;8.00;7.20;;;22.60;99.90;;;;;;5072451;28;20213;-82
2021/07/26 08:18:31;;;;;;;7.37;6.70;;;22.70;99.90;;;;;;5069114;28;20425;-80
2021/07/26 08:20:57;;;;;;;6.87;6.17;;;22.80;99.90;;;;;;5077602;28;20487;-82
2021/07/26 08:23:23;;;;;;;8.57;7.77;;;22.70;99.90;;;;;;5075671;28;20419;-82
2021/07/26 08:25:48;;;;;;;6.90;6.30;;;22.70;99.90;;;;;;5073473;28;20160;-82
2021/07/26 08:28:14;;;;;;;7.13;6.43;;;22.60;99.90;;;;;;5066364;28;20168;-82
2021/07/26 08:30:40;;;;;;;7.80;7.00;;;22.50;99.90;;;;;;5078747;28;20182;-82
2021/07/26 08:33:06;;;;;;;7.17;6.27;;;22.50;99.90;;;;;;5071806;28;20266;-82
2021/07/26 08:35:33;;;;;;;7.43;6.73;;;22.60;99.90;;;;;;5083702;28;20448;-82
2021/07/26 08:37:58;;;;;;;8.80;7.07;;;22.40;99.90;;;;;;5060903;28;20434;-83
2021/07/26 08:40:28;;;;;;;8.03;7.33;;;22.40;99.90;;;;;;5060645;28;20483;-83
2021/07/26 08:42:56;;;;;;;8.00;6.50;;;22.30;99.90;;;;;;5109797;28;20640;-82
2021/07/26 08:45:22;;;;;;;8.73;7.93;;;22.60;99.90;;;;;;5096137;28;20461;-83
2021/07/26 08:47:48;;;;;;;7.93;7.23;;;22.70;99.90;;;;;;5096339;28;20432;-83
2021/07/26 08:50:17;;;;;;;9.00;8.00;;;22.40;99.90;;;;;;5089953;28;20638;-82
2021/07/26 08:52:45;;;;;;;9.87;7.90;;;22.70;99.90;;;;;;5081671;28;20631;-81
2021/07/26 08:55:15;;;;;;;8.17;6.10;;;22.60;99.90;;;;;;5099207;28;20474;-80
2021/07/26 08:57:43;;;;;;;7.03;6.43;;;22.70;99.90;;;;;;5090714;28;20434;-83
2021/07/26 09:00:10;;;;;;;6.93;6.23;;;22.60;99.90;;;;;;5097158;28;20435;-82
2021/07/26 09:02:36;;;;;;;7.10;6.40;;;22.60;99.90;;;;;;5073165;28;20436;-82
2021/07/26 09:05:01;;;;;;;26.30;24.03;;;22.80;99.90;;;;;;5071436;28;20422;-83
2021/07/26 09:07:27;;;;;;;9.50;8.70;;;23.00;99.90;;;;;;5096575;28;20201;-82
2021/07/26 09:09:53;;;;;;;12.03;7.13;;;23.10;99.90;;;;;;5089262;28;20662;-82
2021/07/26 09:12:36;;;;;;;7.57;6.90;;;23.10;99.90;;;;;;5084937;28;20202;-82
2021/07/26 09:15:04;;;;;;;9.07;7.70;;;23.20;99.90;;;;;;5079592;28;20436;-83
2021/07/26 09:17:41;;;;;;;8.87;7.30;;;23.30;99.90;;;;;;5103561;28;20418;-83
2021/07/26 09:20:07;;;;;;;7.00;6.27;;;23.30;99.90;;;;;;5067634;28;20428;-83
2021/07/26 09:22:36;;;;;;;7.53;6.60;;;23.30;99.90;;;;;;5092980;28;20428;-84
2021/07/26 09:25:21;;;;;;;7.23;6.53;;;23.10;99.90;;;;;;5092646;28;20178;-84
2021/07/26 09:28:07;;;;;;;7.53;6.83;;;23.20;99.90;;;;;;5083065;28;20449;-84
2021/07/26 09:30:43;;;;;;;8.20;7.43;;;23.10;99.90;;;;;;5099634;28;20444;-85
2021/07/26 09:33:24;;;;;;;7.37;6.10;;;23.30;99.90;;;;;;5091539;28;20940;-82
2021/07/26 09:36:13;;;;;;;6.93;6.23;;;23.50;99.90;;;;;;5085077;28;20444;-83
2021/07/26 09:38:42;;;;;;;9.83;6.50;;;23.30;99.90;;;;;;5090577;28;20428;-81
2021/07/26 09:41:08;;;;;;;6.33;5.57;;;23.30;99.90;;;;;;5088680;28;20472;-82
2021/07/26 09:43:34;;;;;;;7.63;6.90;;;23.30;99.90;;;;;;5077983;28;20429;-81
2021/07/26 09:46:00;;;;;;;6.83;6.23;;;22.90;99.90;;;;;;5080070;28;20429;-83
2021/07/26 09:48:27;;;;;;;7.30;6.70;;;23.20;99.90;;;;;;5085942;28;20434;-83
2021/07/26 09:50:54;;;;;;;9.63;6.50;;;23.00;99.90;;;;;;5078001;28;20682;-80
2021/07/26 09:53:22;;;;;;;5.83;5.33;;;23.10;99.90;;;;;;5076674;28;20405;-79
2021/07/26 09:55:53;;;;;;;6.40;5.80;;;22.80;99.90;;;;;;5068922;28;20920;-82
2021/07/26 09:58:34;;;;;;;7.87;7.07;;;22.80;99.90;;;;;;5072764;28;20417;-82
2021/07/26 10:01:00;;;;;;;9.47;6.97;;;22.80;99.90;;;;;;5090281;28;20421;-82
2021/07/26 10:03:27;;;;;;;7.43;6.73;;;23.20;99.90;;;;;;5062636;28;20421;-80
2021/07/26 10:05:54;;;;;;;6.40;5.33;;;23.20;99.90;;;;;;5043068;28;20615;-82
2021/07/26 10:08:21;;;;;;;5.10;4.70;;;23.00;99.90;;;;;;5092307;28;20472;-83
2021/07/26 10:10:47;;;;;;;9.77;6.63;;;23.00;99.90;;;;;;5088106;28;20832;-83
2021/07/26 10:13:13;;;;;;;6.47;5.70;;;22.90;99.90;;;;;;5072582;28;20413;-83
2021/07/26 10:15:39;;;;;;;9.40;6.30;;;22.80;99.90;;;;;;5063208;28;20420;-81
2021/07/26 10:18:07;;;;;;;10.90;6.60;;;22.80;99.90;;;;;;5066756;28;20421;-83
2021/07/26 10:20:41;;;;;;;6.53;5.90;;;22.80;99.90;;;;;;5091202;28;20429;-81
2021/07/26 10:23:14;;;;;;;5.80;5.30;;;22.70;99.90;;;;;;5087849;28;20431;-83
2021/07/26 10:25:46;;;;;;;7.50;5.70;;;23.00;99.90;;;;;;5097747;28;20424;-83
2021/07/26 10:28:24;;;;;;;6.23;5.63;;;22.90;99.90;;;;;;5098808;28;20752;-83
2021/07/26 10:30:49;;;;;;;6.23;5.07;;;22.90;99.90;;;;;;5048578;28;20429;-82
2021/07/26 10:33:17;;;;;;;7.70;5.97;;;23.10;99.90;;;;;;5090091;28;20855;-81
2021/07/26 10:35:55;;;;;;;5.53;5.03;;;23.00;99.90;;;;;;5063320;28;20181;-84
2021/07/26 10:38:51;;;;;;;6.03;5.40;;;23.20;99.90;;;;;;5084567;28;20873;-84
2021/07/26 10:41:55;;;;;;;6.17;5.67;;;23.30;99.90;;;;;;5080030;28;20461;-84
2021/07/26 10:44:43;;;;;;;7.07;5.63;;;23.20;99.90;;;;;;5064510;28;20420;-83
2021/07/26 10:47:15;;;;;;;8.77;6.50;;;23.30;99.90;;;;;;5048228;28;20424;-84
2021/07/26 10:50:10;;;;;;;7.73;6.10;;;23.40;99.90;;;;;;5042118;28;20958;-83
2021/07/26 10:52:48;;;;;;;6.50;5.90;;;23.50;99.90;;;;;;5064617;28;20488;-85
2021/07/26 10:55:50;;;;;;;8.07;7.27;;;23.50;99.90;;;;;;5079374;28;20428;-83
2021/07/26 10:58:53;;;;;;;7.30;6.37;;;23.50;99.90;;;;;;5098360;28;20747;-84
2021/07/26 11:01:37;;;;;;;12.80;7.23;;;23.60;99.90;;;;;;5076672;28;20421;-83
2021/07/26 11:04:03;;;;;;;9.00;6.93;;;23.70;99.90;;;;;;5066550;28;20413;-83
2021/07/26 11:07:04;;;;;;;7.27;6.57;;;23.90;99.90;;;;;;5096835;28;20897;-81
2021/07/26 11:09:41;;;;;;;6.70;6.00;;;23.70;99.90;;;;;;5025264;28;20252;-84
2021/07/26 11:12:07;;;;;;;6.43;5.80;;;23.50;99.90;;;;;;5008819;28;20584;-82
2021/07/26 11:14:33;;;;;;;7.00;5.97;;;23.60;99.90;;;;;;5031131;28;20814;-83
2021/07/26 11:17:04;;;;;;;6.40;5.60;;;23.70;99.90;;;;;;5037861;28;20193;-81
2021/07/26 11:19:32;;;;;;;7.73;6.27;;;23.80;99.90;;;;;;5024783;28;20188;-82
2021/07/26 11:22:06;;;;;;;5.70;5.20;;;24.00;99.90;;;;;;5003087;28;20422;-82
2021/07/26 11:24:53;;;;;;;6.00;5.50;;;24.00;99.90;;;;;;4997011;28;20948;-82
2021/07/26 11:27:40;;;;;;;6.63;6.03;;;23.90;99.90;;;;;;5022407;28;20480;-83
2021/07/26 11:30:10;;;;;;;6.47;5.83;;;24.20;99.90;;;;;;5007417;28;20456;-80
2021/07/26 11:32:36;;;;;;;6.43;5.60;;;24.20;99.90;;;;;;5022769;28;20538;-82
2021/07/26 11:35:05;;;;;;;6.60;6.10;;;24.40;99.90;;;;;;5028575;28;20431;-83
2021/07/26 11:37:32;;;;;;;7.57;6.30;;;24.70;99.90;;;;;;5024197;28;20165;-82
2021/07/26 11:39:59;;;;;;;6.70;6.00;;;24.50;99.90;;;;;;5025460;28;20487;-81
2021/07/26 11:42:28;;;;;;;7.60;6.80;;;24.50;99.90;;;;;;5025378;28;20496;-82
2021/07/26 11:44:54;;;;;;;6.80;6.13;;;24.20;99.90;;;;;;5043378;28;20557;-82
2021/07/26 11:47:37;;;;;;;7.57;6.93;;;24.00;99.90;;;;;;5042032;28;20518;-83
2021/07/26 11:50:05;;;;;;;8.37;6.57;;;24.30;99.90;;;;;;5057887;28;20556;-82
2021/07/26 11:52:31;;;;;;;9.10;6.93;;;24.40;99.90;;;;;;5067871;28;20425;-81
2021/07/26 11:54:56;;;;;;;9.60;7.50;;;24.20;99.90;;;;;;5084855;28;20409;-83
2021/07/26 11:57:22;;;;;;;7.70;7.00;;;24.30;99.90;;;;;;5084294;28;20171;-81
2021/07/26 11:59:52;;;;;;;7.83;7.10;;;24.40;99.90;;;;;;5098151;28;20182;-84
2021/07/26 12:02:28;;;;;;;8.70;7.90;;;24.70;99.90;;;;;;5107044;28;20588;-79
2021/07/26 12:04:55;;;;;;;8.73;7.93;;;24.90;99.90;;;;;;5094172;28;20416;-83
2021/07/26 12:07:43;;;;;;;7.80;6.80;;;24.70;99.90;;;;;;5091112;28;20504;-83
2021/07/26 12:10:10;;;;;;;6.90;6.30;;;24.70;99.90;;;;;;5041178;28;21030;-83
2021/07/26 12:12:38;;;;;;;8.30;7.07;;;24.50;99.90;;;;;;5026467;28;20498;-81
2021/07/26 12:15:25;;;;;;;7.13;6.03;;;24.20;99.90;;;;;;5029985;28;20829;-84
2021/07/26 12:18:09;;;;;;;6.90;6.20;;;24.50;99.90;;;;;;5037032;28;20616;-82
2021/07/26 12:20:54;;;;;;;6.27;5.67;;;24.80;99.90;;;;;;5028432;28;20440;-83
2021/07/26 12:23:22;;;;;;;6.67;6.00;;;24.50;99.90;;;;;;5025116;28;20459;-84
2021/07/26 12:25:51;;;;;;;6.03;5.27;;;24.90;99.90;;;;;;5008424;28;20479;-83
2021/07/26 12:28:18;;;;;;;7.77;6.80;;;24.80;99.90;;;;;;5026104;28;20417;-83
2021/07/26 12:30:45;;;;;;;10.20;6.23;;;25.00;99.90;;;;;;5027259;28;20490;-83
2021/07/26 12:33:12;;;;;;;8.77;7.30;;;24.90;99.90;;;;;;5009304;28;20439;-84
2021/07/26 12:35:44;;;;;;;7.40;6.70;;;25.20;99.90;;;;;;5004819;28;20396;-84
2021/07/26 12:38:18;;;;;;;6.50;5.60;;;24.90;99.90;;;;;;5004049;28;20869;-84
2021/07/26 12:40:49;;;;;;;6.20;5.57;;;24.90;99.90;;;;;;5040230;28;20467;-84
2021/07/26 12:43:19;;;;;;;6.27;5.67;;;25.20;99.90;;;;;;5045701;28;20508;-84
2021/07/26 12:45:59;;;;;;;5.80;5.30;;;25.60;99.90;;;;;;5061305;28;20480;-83
2021/07/26 12:48:26;;;;;;;7.00;5.23;;;25.50;99.90;;;;;;5080041;28;20408;-82
2021/07/26 12:50:58;;;;;;;6.63;5.73;;;26.40;99.90;;;;;;5078905;28;20385;-82